createdAt,value
2019-02-20T00:00:43.000Z,76.48
2019-02-20T00:03:14.853Z,76.19
2019-02-20T00:05:49.712Z,76.14
2019-02-20T00:08:21.907Z,76.28
2019-02-20T00:10:54.759Z,76.07
2019-02-20T00:13:29.538Z,76.09
2019-02-20T00:16:01.370Z,75.94
2019-02-20T00:18:35.599Z,76.10
2019-02-20T00:21:07.453Z,76.31
2019-02-20T00:23:39.283Z,76.13
2019-02-20T00:26:11.108Z,76.15
2019-02-20T00:28:42.963Z,75.98
2019-02-20T00:31:15.960Z,76.09
2019-02-20T00:33:47.825Z,76.10
2019-02-20T00:36:24.381Z,76.14
2019-02-20T00:38:57.910Z,76.14
2019-02-20T00:41:29.730Z,75.82
2019-02-20T00:44:15.368Z,75.67
2019-02-20T00:47:27.115Z,76.28
2019-02-20T00:49:59.057Z,76.21
2019-02-20T00:52:50.147Z,76.10
2019-02-20T00:55:25.139Z,76.03
2019-02-20T00:57:56.978Z,76.99
2019-02-20T01:00:30.580Z,77.27
2019-02-20T01:03:03.979Z,77.21
2019-02-20T01:05:35.820Z,76.53
2019-02-20T01:08:09.051Z,76.25
2019-02-20T01:10:43.458Z,76.67
2019-02-20T01:13:18.120Z,76.63
2019-02-20T01:15:50.000Z,76.19
2019-02-20T01:18:21.845Z,76.29
2019-02-20T01:20:56.116Z,76.41
2019-02-20T01:23:29.689Z,76.46
2019-02-20T01:26:01.538Z,76.35
2019-02-20T01:28:36.460Z,76.60
2019-02-20T01:31:09.370Z,76.88
2019-02-20T01:33:42.421Z,76.94
2019-02-20T01:36:14.239Z,77.00
2019-02-20T01:38:46.110Z,76.88
2019-02-20T01:41:19.107Z,76.89
2019-02-20T01:43:53.973Z,76.62
2019-02-20T01:46:29.002Z,76.73
2019-02-20T01:49:00.876Z,76.28
2019-02-20T01:51:32.726Z,75.91
2019-02-20T01:54:06.583Z,76.03
2019-02-20T01:56:38.451Z,76.44
2019-02-20T01:59:12.758Z,76.74
2019-02-20T02:01:44.586Z,76.52
2019-02-20T02:04:16.522Z,76.23
2019-02-20T02:06:48.395Z,76.75
2019-02-20T02:09:20.247Z,77.03
2019-02-20T02:11:52.079Z,77.35
2019-02-20T02:14:23.951Z,77.07
2019-02-20T02:17:00.332Z,77.02
2019-02-20T02:19:38.789Z,77.25
2019-02-20T02:22:13.487Z,77.43
2019-02-20T02:24:45.551Z,77.29
2019-02-20T02:27:17.427Z,76.88
2019-02-20T02:29:50.411Z,76.84
2019-02-20T02:32:22.317Z,77.04
2019-02-20T02:34:54.175Z,77.09
2019-02-20T02:37:26.076Z,77.33
2019-02-20T02:39:57.924Z,77.88
2019-02-20T02:42:29.807Z,77.61
2019-02-20T02:45:01.677Z,77.44
2019-02-20T02:47:33.556Z,77.72
2019-02-20T02:50:05.681Z,77.61
2019-02-20T02:52:37.550Z,77.46
2019-02-20T02:55:17.188Z,77.43
2019-02-20T02:57:51.038Z,77.35
2019-02-20T03:00:21.667Z,77.67
2019-02-20T03:02:53.518Z,77.89
2019-02-20T03:05:27.003Z,77.97
2019-02-20T03:08:00.133Z,77.88
2019-02-20T03:10:33.519Z,77.89
2019-02-20T03:13:10.232Z,78.24
2019-02-20T03:15:42.099Z,77.96
2019-02-20T03:18:15.038Z,77.62
2019-02-20T03:20:46.893Z,78.09
2019-02-20T03:23:21.497Z,77.83
2019-02-20T03:25:53.620Z,76.78
2019-02-20T03:28:25.455Z,75.90
2019-02-20T03:30:57.316Z,75.82
2019-02-20T03:33:29.145Z,75.70
2019-02-20T03:36:01.047Z,75.28
2019-02-20T03:38:32.905Z,75.30
2019-02-20T03:41:04.796Z,75.72
2019-02-20T03:43:36.611Z,76.91
2019-02-20T03:46:09.746Z,77.64
2019-02-20T03:48:41.618Z,78.18
2019-02-20T03:51:13.423Z,78.33
2019-02-20T03:53:51.411Z,78.58
2019-02-20T03:56:18.840Z,78.71
2019-02-20T03:58:50.799Z,78.29
2019-02-20T04:01:22.612Z,78.02
2019-02-20T04:03:54.453Z,77.89
2019-02-20T04:06:26.300Z,77.94
2019-02-20T04:08:59.215Z,78.39
2019-02-20T04:11:31.082Z,78.27
2019-02-20T04:14:05.506Z,78.08
2019-02-20T04:16:37.368Z,78.06
2019-02-20T04:19:09.246Z,77.95
2019-02-20T04:21:42.261Z,78.18
2019-02-20T04:24:14.146Z,77.86
2019-02-20T04:26:45.965Z,77.80
2019-02-20T04:29:17.813Z,78.27
2019-02-20T04:31:49.639Z,78.26
2019-02-20T04:34:21.490Z,78.35
2019-02-20T04:36:53.351Z,78.42
2019-02-20T04:39:25.235Z,78.47
2019-02-20T04:41:57.057Z,78.71
2019-02-20T04:44:29.977Z,78.74
2019-02-20T04:47:01.809Z,77.91
2019-02-20T04:49:33.688Z,77.42
2019-02-20T04:52:05.494Z,78.01
2019-02-20T04:54:37.378Z,78.00
2019-02-20T04:57:09.211Z,78.26
2019-02-20T04:59:42.313Z,78.28
2019-02-20T05:02:14.135Z,78.37
2019-02-20T05:04:45.962Z,78.44
2019-02-20T05:07:21.962Z,78.30
2019-02-20T05:09:57.356Z,78.81
2019-02-20T05:12:29.197Z,78.98
2019-02-20T05:15:01.062Z,79.08
2019-02-20T05:17:32.898Z,78.77
2019-02-20T05:20:05.060Z,78.83
2019-02-20T05:22:37.110Z,78.95
2019-02-20T05:25:08.949Z,78.78
2019-02-20T05:27:40.797Z,78.84
2019-02-20T05:30:12.637Z,79.10
2019-02-20T05:32:44.460Z,79.44
2019-02-20T05:35:22.354Z,79.03
2019-02-20T05:37:54.194Z,79.01
2019-02-20T05:40:26.044Z,78.69
2019-02-20T05:42:57.888Z,78.87
2019-02-20T05:45:29.722Z,78.73
2019-02-20T05:48:01.563Z,78.62
2019-02-20T05:50:33.404Z,79.16
2019-02-20T05:53:05.261Z,79.16
2019-02-20T05:55:37.154Z,79.03
2019-02-20T05:58:09.109Z,78.50
2019-02-20T06:00:40.949Z,78.49
2019-02-20T06:03:12.792Z,78.34
2019-02-20T06:05:44.625Z,78.44
2019-02-20T06:08:18.139Z,78.85
2019-02-20T06:10:50.019Z,78.80
2019-02-20T06:13:23.034Z,78.53
2019-02-20T06:15:56.545Z,78.79
2019-02-20T06:18:28.390Z,78.53
2019-02-20T06:21:00.242Z,78.62
2019-02-20T06:23:32.063Z,78.41
2019-02-20T06:26:06.650Z,78.07
2019-02-20T06:28:40.141Z,77.77
2019-02-20T06:31:15.021Z,77.51
2019-02-20T06:33:46.867Z,77.98
2019-02-20T06:36:18.820Z,78.27
2019-02-20T06:38:53.732Z,77.72
2019-02-20T06:41:27.261Z,77.01
2019-02-20T06:43:59.106Z,77.02
2019-02-20T06:46:30.938Z,77.23
2019-02-20T06:49:02.762Z,76.78
2019-02-20T06:51:34.616Z,77.01
2019-02-20T06:54:09.205Z,77.79
2019-02-20T06:56:47.019Z,77.80
2019-02-20T06:59:18.903Z,77.68
2019-02-20T07:01:50.779Z,77.58
2019-02-20T07:04:25.710Z,78.03
2019-02-20T07:07:26.856Z,78.22
2019-02-20T07:11:25.786Z,78.04
2019-02-20T07:14:38.853Z,78.11
2019-02-20T07:18:15.311Z,78.38
2019-02-20T07:21:38.373Z,77.84
2019-02-20T07:24:42.871Z,76.27
2019-02-20T07:28:13.022Z,76.02
2019-02-20T07:30:44.887Z,75.93
2019-02-20T07:33:21.738Z,76.64
2019-02-20T07:35:53.589Z,76.61
2019-02-20T07:38:25.484Z,76.85
2019-02-20T07:41:00.544Z,77.57
2019-02-20T07:43:30.990Z,77.65
2019-02-20T07:46:02.855Z,77.46
2019-02-20T07:48:45.430Z,77.44
2019-02-20T07:51:19.311Z,77.85
2019-02-20T07:53:50.810Z,76.72
2019-02-20T07:56:24.132Z,76.20
2019-02-20T07:58:55.714Z,75.83
2019-02-20T08:01:27.576Z,73.95
2019-02-20T08:03:59.135Z,72.55
2019-02-20T08:06:39.952Z,72.53
2019-02-20T08:09:13.534Z,71.90
2019-02-20T08:11:45.400Z,72.42
2019-02-20T08:14:18.095Z,72.89
2019-02-20T08:16:52.928Z,71.73
2019-02-20T08:19:24.566Z,72.33
2019-02-20T08:21:57.409Z,71.77
2019-02-20T08:24:32.066Z,71.62
2019-02-20T08:27:02.286Z,71.37
2019-02-20T08:29:38.789Z,70.67
2019-02-20T08:32:11.563Z,72.30
2019-02-20T08:34:43.153Z,71.54
2019-02-20T08:37:14.707Z,72.58
2019-02-20T08:39:48.583Z,72.18
2019-02-20T08:42:29.316Z,72.25
2019-02-20T08:45:00.908Z,71.46
2019-02-20T08:47:32.528Z,70.62
2019-02-20T08:50:04.231Z,69.84
2019-02-20T08:52:37.410Z,71.46
2019-02-20T08:55:10.638Z,71.95
2019-02-20T08:57:42.128Z,71.65
2019-02-20T09:00:16.148Z,69.48
2019-02-20T09:02:50.734Z,69.70
2019-02-20T09:05:22.334Z,70.39
2019-02-20T09:07:56.747Z,70.78
2019-02-20T09:10:28.323Z,70.31
2019-02-20T09:13:03.133Z,70.89
2019-02-20T09:15:35.793Z,71.24
2019-02-20T09:18:08.352Z,71.28
2019-02-20T09:20:41.532Z,71.34
2019-02-20T09:23:13.113Z,71.08
2019-02-20T09:25:44.683Z,71.75
2019-02-20T09:28:17.324Z,71.19
2019-02-20T09:30:51.486Z,69.93
2019-02-20T09:33:23.060Z,69.21
2019-02-20T09:35:54.637Z,68.13
2019-02-20T09:38:26.234Z,67.33
2019-02-20T09:40:57.767Z,67.54
2019-02-20T09:43:29.351Z,66.79
2019-02-20T09:46:01.977Z,66.56
2019-02-20T09:48:33.593Z,67.29
2019-02-20T09:51:05.144Z,67.21
2019-02-20T09:53:36.771Z,66.63
2019-02-20T09:56:08.406Z,66.30
2019-02-20T09:58:43.180Z,67.24
2019-02-20T10:01:14.768Z,66.44
2019-02-20T10:03:46.385Z,66.88
2019-02-20T10:06:17.948Z,66.30
2019-02-20T10:08:49.617Z,65.76
2019-02-20T10:11:22.461Z,66.74
2019-02-20T10:13:54.047Z,65.35
2019-02-20T10:16:25.652Z,65.56
2019-02-20T10:18:57.245Z,63.54
2019-02-20T10:21:28.936Z,65.10
2019-02-20T10:24:00.558Z,64.68
2019-02-20T10:26:33.431Z,62.61
2019-02-20T10:29:05.181Z,62.98
2019-02-20T10:31:36.749Z,64.03
2019-02-20T10:34:08.342Z,63.63
2019-02-20T10:36:39.972Z,62.95
2019-02-20T10:39:11.580Z,63.42
2019-02-20T10:41:43.136Z,62.42
2019-02-20T10:44:14.699Z,62.38
2019-02-20T10:46:46.298Z,62.01
2019-02-20T10:49:17.871Z,61.17
2019-02-20T10:51:49.497Z,60.51
2019-02-20T10:54:21.062Z,60.89
2019-02-20T10:56:52.635Z,61.01
2019-02-20T10:59:24.196Z,60.07
2019-02-20T11:01:56.103Z,60.58
2019-02-20T11:04:27.701Z,59.77
2019-02-20T11:06:59.278Z,60.62
2019-02-20T11:09:31.908Z,60.55
2019-02-20T11:12:03.908Z,59.48
2019-02-20T11:14:35.676Z,59.71
2019-02-20T11:17:08.345Z,59.27
2019-02-20T11:19:39.901Z,59.04
2019-02-20T11:22:11.501Z,59.11
2019-02-20T11:24:43.066Z,58.52
2019-02-20T11:27:14.686Z,58.69
2019-02-20T11:29:46.267Z,58.66
2019-02-20T11:32:17.859Z,57.51
2019-02-20T11:34:49.448Z,58.28
2019-02-20T11:37:23.369Z,57.45
2019-02-20T11:39:56.022Z,58.58
2019-02-20T11:42:27.624Z,59.00
2019-02-20T11:44:59.176Z,59.15
2019-02-20T11:47:30.769Z,57.93
2019-02-20T11:50:03.518Z,57.74
2019-02-20T11:52:38.280Z,57.57
2019-02-20T11:55:08.866Z,57.73
2019-02-20T11:57:40.629Z,58.04
2019-02-20T12:00:13.139Z,57.87
2019-02-20T12:02:44.703Z,57.79
2019-02-20T12:05:17.920Z,57.15
2019-02-20T12:07:49.601Z,57.27
2019-02-20T12:10:21.265Z,57.56
2019-02-20T12:12:52.849Z,57.13
2019-02-20T12:15:24.433Z,57.52
2019-02-20T12:17:55.984Z,56.69
2019-02-20T12:20:28.085Z,56.95
2019-02-20T12:22:59.630Z,56.57
2019-02-20T12:25:31.255Z,57.67
2019-02-20T12:28:02.821Z,57.11
2019-02-20T12:30:34.469Z,57.16
2019-02-20T12:33:06.133Z,56.58
2019-02-20T12:35:37.710Z,56.46
2019-02-20T12:38:09.284Z,56.56
2019-02-20T12:40:40.883Z,55.79
2019-02-20T12:43:12.456Z,55.95
2019-02-20T12:45:44.048Z,55.24
2019-02-20T12:48:15.911Z,55.28
2019-02-20T12:50:47.567Z,55.66
2019-02-20T12:53:19.165Z,55.54
2019-02-20T12:55:58.910Z,55.56
2019-02-20T12:58:30.729Z,55.94
2019-02-20T13:01:02.764Z,56.77
2019-02-20T13:03:36.676Z,57.06
2019-02-20T13:06:08.491Z,57.08
2019-02-20T13:08:40.106Z,56.04
2019-02-20T13:11:11.696Z,55.45
2019-02-20T13:13:43.548Z,55.61
2019-02-20T13:16:15.234Z,55.96
2019-02-20T13:18:48.144Z,55.87
2019-02-20T13:21:19.738Z,55.97
2019-02-20T13:23:51.313Z,56.56
2019-02-20T13:26:22.891Z,56.20
2019-02-20T13:28:59.718Z,56.19
2019-02-20T13:31:31.340Z,56.57
2019-02-20T13:34:02.881Z,56.09
2019-02-20T13:36:34.433Z,56.87
2019-02-20T13:39:07.030Z,56.12
2019-02-20T13:41:40.586Z,56.35
2019-02-20T13:44:13.875Z,55.92
2019-02-20T13:46:48.227Z,55.26
2019-02-20T13:49:19.907Z,54.70
2019-02-20T13:51:51.532Z,54.94
2019-02-20T13:54:23.133Z,55.14
2019-02-20T13:57:01.667Z,54.93
2019-02-20T13:59:27.999Z,55.21
2019-02-20T14:02:00.996Z,54.84
2019-02-20T14:04:33.644Z,54.98
2019-02-20T14:07:05.226Z,55.04
2019-02-20T14:09:36.783Z,54.86
2019-02-20T14:12:08.694Z,55.12
2019-02-20T14:14:40.563Z,54.87
2019-02-20T14:17:12.207Z,55.33
2019-02-20T14:19:43.804Z,55.24
2019-02-20T14:22:15.397Z,55.86
2019-02-20T14:24:46.968Z,55.88
2019-02-20T14:27:19.540Z,55.74
2019-02-20T14:29:51.132Z,56.12
2019-02-20T14:32:22.764Z,56.21
2019-02-20T14:34:54.362Z,55.96
2019-02-20T14:37:25.951Z,56.23
2019-02-20T14:39:57.812Z,56.19
2019-02-20T14:42:29.400Z,55.71
2019-02-20T14:45:01.449Z,55.74
2019-02-20T14:47:33.522Z,56.40
2019-02-20T14:50:05.726Z,56.82
2019-02-20T14:52:38.785Z,56.86
2019-02-20T14:55:10.791Z,56.87
2019-02-20T14:57:43.051Z,56.37
2019-02-20T15:00:14.995Z,56.38
2019-02-20T15:02:46.730Z,56.34
2019-02-20T15:05:19.919Z,56.31
2019-02-20T15:07:51.614Z,56.66
2019-02-20T15:10:23.209Z,56.37
2019-02-20T15:12:54.789Z,56.38
2019-02-20T15:15:26.377Z,56.57
2019-02-20T15:17:57.982Z,56.55
2019-02-20T15:20:29.560Z,56.60
2019-02-20T15:23:01.172Z,56.96
2019-02-20T15:25:32.871Z,56.94
2019-02-20T15:28:04.736Z,57.21
2019-02-20T15:30:39.468Z,57.44
2019-02-20T15:33:11.152Z,57.61
2019-02-20T15:35:42.751Z,57.21
2019-02-20T15:38:14.640Z,56.96
2019-02-20T15:40:46.198Z,57.17
2019-02-20T15:43:17.783Z,57.25
2019-02-20T15:45:49.489Z,57.43
2019-02-20T15:48:23.290Z,57.22
2019-02-20T15:50:54.486Z,57.48
2019-02-20T15:53:26.085Z,57.80
2019-02-20T15:56:00.743Z,57.67
2019-02-20T15:58:32.485Z,57.83
2019-02-20T16:01:05.737Z,57.86
2019-02-20T16:03:37.481Z,57.88
2019-02-20T16:06:09.114Z,57.79
2019-02-20T16:08:40.734Z,57.89
2019-02-20T16:11:12.720Z,57.79
2019-02-20T16:13:44.368Z,58.04
2019-02-20T16:16:16.028Z,58.30
2019-02-20T16:18:47.620Z,58.54
2019-02-20T16:21:19.186Z,58.49
2019-02-20T16:23:50.827Z,58.81
2019-02-20T16:26:25.491Z,59.39
2019-02-20T16:28:57.056Z,60.04
2019-02-20T16:31:31.489Z,60.24
2019-02-20T16:34:03.375Z,60.34
2019-02-20T16:36:35.054Z,60.72
2019-02-20T16:39:07.421Z,61.00
2019-02-20T16:41:39.151Z,60.74
2019-02-20T16:44:10.766Z,60.51
2019-02-20T16:46:42.319Z,60.46
2019-02-20T16:49:13.929Z,60.63
2019-02-20T16:51:45.512Z,60.37
2019-02-20T16:54:17.094Z,60.70
2019-02-20T16:56:48.641Z,60.92
2019-02-20T16:59:20.238Z,60.79
2019-02-20T17:01:53.114Z,61.46
2019-02-20T17:04:24.974Z,61.86
2019-02-20T17:06:56.607Z,61.90
2019-02-20T17:09:28.224Z,61.54
2019-02-20T17:12:01.395Z,61.30
2019-02-20T17:14:33.214Z,61.50
2019-02-20T17:17:05.005Z,61.78
2019-02-20T17:19:38.167Z,61.96
2019-02-20T17:22:09.873Z,61.93
2019-02-20T17:24:41.514Z,61.96
2019-02-20T17:27:13.094Z,62.21
2019-02-20T17:29:44.715Z,62.66
2019-02-20T17:32:16.340Z,62.82
2019-02-20T17:34:47.942Z,63.05
2019-02-20T17:37:21.190Z,63.22
2019-02-20T17:39:53.829Z,63.55
2019-02-20T17:42:25.454Z,63.52
2019-02-20T17:44:57.020Z,63.67
2019-02-20T17:47:29.686Z,63.73
2019-02-20T17:50:02.336Z,63.95
2019-02-20T17:52:34.062Z,63.94
2019-02-20T17:55:06.086Z,64.51
2019-02-20T17:57:37.757Z,64.94
2019-02-20T18:00:11.661Z,64.81
2019-02-20T18:02:43.431Z,64.43
2019-02-20T18:05:15.122Z,64.04
2019-02-20T18:07:51.477Z,64.96
2019-02-20T18:10:20.016Z,65.45
2019-02-20T18:12:53.108Z,64.89
2019-02-20T18:15:24.687Z,65.07
2019-02-20T18:17:56.285Z,65.70
2019-02-20T18:20:27.908Z,66.18
2019-02-20T18:22:59.990Z,66.02
2019-02-20T18:25:31.562Z,66.55
2019-02-20T18:28:03.293Z,66.81
2019-02-20T18:30:36.064Z,66.63
2019-02-20T18:33:07.680Z,66.48
2019-02-20T18:35:39.417Z,66.57
2019-02-20T18:38:11.051Z,66.90
2019-02-20T18:40:42.657Z,67.62
2019-02-20T18:43:14.289Z,68.10
2019-02-20T18:45:45.984Z,68.04
2019-02-20T18:48:17.610Z,68.22
2019-02-20T18:50:49.280Z,68.26
2019-02-20T18:53:21.018Z,68.40
2019-02-20T18:55:52.628Z,67.98
2019-02-20T18:58:33.500Z,68.19
2019-02-20T19:00:57.607Z,68.58
2019-02-20T19:03:29.268Z,68.76
2019-02-20T19:06:01.113Z,68.79
2019-02-20T19:08:40.321Z,69.04
2019-02-20T19:11:38.331Z,69.19
2019-02-20T19:14:23.870Z,69.26
2019-02-20T19:17:46.305Z,69.32
2019-02-20T19:21:15.453Z,69.48
2019-02-20T19:24:41.388Z,69.61
2019-02-20T19:27:45.648Z,69.77
2019-02-20T19:31:24.323Z,69.87
2019-02-20T19:35:06.248Z,70.00
2019-02-20T19:38:51.497Z,70.32
2019-02-20T19:42:18.663Z,70.50
2019-02-20T19:45:53.238Z,70.35
2019-02-20T19:49:16.033Z,70.45
2019-02-20T19:53:00.334Z,70.49
2019-02-20T19:56:17.787Z,70.64
2019-02-20T19:59:28.780Z,71.13
2019-02-20T20:03:06.738Z,71.39
2019-02-20T20:06:25.999Z,71.40
2019-02-20T20:10:06.882Z,71.38
2019-02-20T20:13:26.425Z,71.27
2019-02-20T20:17:01.781Z,71.05
2019-02-20T20:20:35.693Z,71.41
2019-02-20T20:24:25.606Z,71.48
2019-02-20T20:28:01.712Z,71.91
2019-02-20T20:31:36.944Z,71.85
2019-02-20T20:35:03.489Z,72.40
2019-02-20T20:38:08.625Z,71.32
2019-02-20T20:41:47.571Z,70.79
2019-02-20T20:45:23.415Z,71.40
2019-02-20T20:48:55.494Z,71.69
2019-02-20T20:52:27.328Z,72.31
2019-02-20T20:55:35.949Z,72.37
2019-02-20T20:58:46.823Z,72.00
2019-02-20T21:01:58.533Z,72.46
2019-02-20T21:05:39.379Z,72.59
2019-02-20T21:08:52.701Z,72.84
2019-02-20T21:13:04.150Z,72.99
2019-02-20T21:16:31.268Z,73.00
2019-02-20T21:19:40.923Z,72.79
2019-02-20T21:23:19.903Z,72.90
2019-02-20T21:26:53.984Z,72.98
2019-02-20T21:30:14.852Z,73.22
2019-02-20T21:34:03.322Z,73.33
2019-02-20T21:36:53.047Z,73.44
2019-02-20T21:39:59.285Z,73.54
2019-02-20T21:43:26.616Z,73.59
2019-02-20T21:46:48.620Z,73.43
2019-02-20T21:50:28.043Z,73.36
2019-02-20T21:53:41.292Z,73.42
2019-02-20T21:56:42.372Z,73.67
2019-02-20T22:00:15.818Z,73.68
2019-02-20T22:03:49.914Z,74.14
2019-02-20T22:06:56.767Z,74.34
2019-02-20T22:09:58.141Z,74.34
2019-02-20T22:13:26.131Z,74.45
2019-02-20T22:16:54.633Z,74.21
2019-02-20T22:20:27.184Z,73.56
2019-02-20T22:23:56.804Z,73.78
2019-02-20T22:27:23.479Z,74.20
2019-02-20T22:31:05.406Z,74.18
2019-02-20T22:34:16.547Z,73.59
2019-02-20T22:37:58.190Z,74.00
2019-02-20T22:41:40.542Z,74.36
2019-02-20T22:45:02.146Z,74.51
2019-02-20T22:48:29.712Z,74.57
2019-02-20T22:52:08.955Z,74.53
2019-02-20T22:56:01.925Z,74.75
2019-02-20T22:58:55.536Z,74.94
2019-02-20T23:02:43.838Z,74.70
2019-02-20T23:06:10.979Z,74.51
2019-02-20T23:09:12.909Z,74.42
2019-02-20T23:12:06.056Z,74.32
2019-02-20T23:15:08.703Z,74.25
2019-02-20T23:17:40.281Z,74.58
2019-02-20T23:20:13.179Z,74.77
2019-02-20T23:22:44.761Z,74.78
2019-02-20T23:25:16.369Z,74.85
2019-02-20T23:27:47.962Z,74.96
2019-02-20T23:30:19.603Z,75.24
2019-02-20T23:32:56.623Z,75.34
2019-02-20T23:35:24.425Z,75.46
2019-02-20T23:37:55.999Z,75.40
2019-02-20T23:40:27.802Z,75.19
2019-02-20T23:42:59.625Z,75.16
2019-02-20T23:45:31.169Z,75.19
2019-02-20T23:48:02.733Z,75.49
2019-02-20T23:50:34.310Z,75.70
2019-02-20T23:53:06.456Z,75.54
2019-02-20T23:55:37.996Z,75.47
2019-02-20T23:58:09.846Z,75.18
